sensor_id;sensor_type;location;lat;lon;timestamp;temperature;humidity
41256;DHT22;26989;45.524;10.938;2022-10-26T00:01:10;16.60;99.90
41256;DHT22;26989;45.524;10.938;2022-10-26T00:03:38;16.60;99.90
41256;DHT22;26989;45.524;10.938;2022-10-26T00:06:11;16.60;99.90
41256;DHT22;26989;45.524;10.938;2022-10-26T00:08:39;16.50;99.90
41256;DHT22;26989;45.524;10.938;2022-10-26T00:11:06;16.50;99.90
41256;DHT22;26989;45.524;10.938;2022-10-26T00:13:34;16.40;99.90
41256;DHT22;26989;45.524;10.938;2022-10-26T00:16:10;16.30;99.90
41256;DHT22;26989;45.524;10.938;2022-10-26T00:18:38;16.30;99.90
41256;DHT22;26989;45.524;10.938;2022-10-26T00:21:06;16.30;99.90
41256;DHT22;26989;45.524;10.938;2022-10-26T00:23:33;16.30;99.90
41256;DHT22;26989;45.524;10.938;2022-10-26T00:26:00;16.30;99.90
41256;DHT22;26989;45.524;10.938;2022-10-26T00:28:27;16.30;99.90
41256;DHT22;26989;45.524;10.938;2022-10-26T00:30:58;16.40;99.90
41256;DHT22;26989;45.524;10.938;2022-10-26T00:33:25;16.20;99.90
41256;DHT22;26989;45.524;10.938;2022-10-26T00:35:55;16.10;99.90
41256;DHT22;26989;45.524;10.938;2022-10-26T00:38:22;16.00;99.90
41256;DHT22;26989;45.524;10.938;2022-10-26T00:40:49;16.00;99.90
41256;DHT22;26989;45.524;10.938;2022-10-26T00:43:34;16.00;99.90
41256;DHT22;26989;45.524;10.938;2022-10-26T00:46:03;16.00;99.90
41256;DHT22;26989;45.524;10.938;2022-10-26T00:48:35;16.00;99.90
41256;DHT22;26989;45.524;10.938;2022-10-26T00:51:10;16.00;99.90
41256;DHT22;26989;45.524;10.938;2022-10-26T00:53:37;16.00;99.90
41256;DHT22;26989;45.524;10.938;2022-10-26T00:56:05;16.00;99.90
41256;DHT22;26989;45.524;10.938;2022-10-26T00:58:33;15.90;99.90
41256;DHT22;26989;45.524;10.938;2022-10-26T01:01:01;15.90;99.90
41256;DHT22;26989;45.524;10.938;2022-10-26T01:03:28;15.80;99.90
41256;DHT22;26989;45.524;10.938;2022-10-26T01:05:57;15.80;99.90
41256;DHT22;26989;45.524;10.938;2022-10-26T01:08:25;15.70;99.90
41256;DHT22;26989;45.524;10.938;2022-10-26T01:10:55;15.70;99.90
41256;DHT22;26989;45.524;10.938;2022-10-26T01:13:23;15.60;99.90
41256;DHT22;26989;45.524;10.938;2022-10-26T01:18:55;15.50;99.90
41256;DHT22;26989;45.524;10.938;2022-10-26T01:26:58;15.40;99.90
41256;DHT22;26989;45.524;10.938;2022-10-26T01:32:22;15.30;99.90
41256;DHT22;26989;45.524;10.938;2022-10-26T01:40:41;15.30;99.90
41256;DHT22;26989;45.524;10.938;2022-10-26T01:43:12;15.30;99.90
41256;DHT22;26989;45.524;10.938;2022-10-26T01:45:43;15.20;99.90
41256;DHT22;26989;45.524;10.938;2022-10-26T01:48:13;15.20;99.90
41256;DHT22;26989;45.524;10.938;2022-10-26T01:50:43;15.20;99.90
41256;DHT22;26989;45.524;10.938;2022-10-26T01:53:13;15.10;99.90
41256;DHT22;26989;45.524;10.938;2022-10-26T01:55:54;15.10;99.90
41256;DHT22;26989;45.524;10.938;2022-10-26T01:58:48;15.10;99.90
41256;DHT22;26989;45.524;10.938;2022-10-26T02:01:22;15.10;99.90
41256;DHT22;26989;45.524;10.938;2022-10-26T02:04:36;15.10;99.90
41256;DHT22;26989;45.524;10.938;2022-10-26T02:12:04;15.10;99.90
41256;DHT22;26989;45.524;10.938;2022-10-26T02:17:58;15.00;99.90
41256;DHT22;26989;45.524;10.938;2022-10-26T02:20:08;15.10;99.90
41256;DHT22;26989;45.524;10.938;2022-10-26T02:22:49;15.10;99.90
41256;DHT22;26989;45.524;10.938;2022-10-26T02:25:22;15.10;99.90
41256;DHT22;26989;45.524;10.938;2022-10-26T02:27:55;15.10;99.90
41256;DHT22;26989;45.524;10.938;2022-10-26T02:30:24;15.10;99.90
41256;DHT22;26989;45.524;10.938;2022-10-26T02:32:53;15.10;99.90
41256;DHT22;26989;45.524;10.938;2022-10-26T02:35:25;15.10;99.90
41256;DHT22;26989;45.524;10.938;2022-10-26T02:37:55;15.10;99.90
41256;DHT22;26989;45.524;10.938;2022-10-26T02:40:26;15.00;99.90
41256;DHT22;26989;45.524;10.938;2022-10-26T02:42:56;15.10;99.90
41256;DHT22;26989;45.524;10.938;2022-10-26T02:45:26;15.00;99.90
41256;DHT22;26989;45.524;10.938;2022-10-26T02:47:54;15.00;99.90
41256;DHT22;26989;45.524;10.938;2022-10-26T02:50:26;15.00;99.90
41256;DHT22;26989;45.524;10.938;2022-10-26T02:53:09;15.10;99.90
41256;DHT22;26989;45.524;10.938;2022-10-26T02:55:45;15.20;99.90
41256;DHT22;26989;45.524;10.938;2022-10-26T02:58:36;15.30;99.90
41256;DHT22;26989;45.524;10.938;2022-10-26T03:01:03;15.30;99.90
41256;DHT22;26989;45.524;10.938;2022-10-26T03:03:30;15.30;99.90
41256;DHT22;26989;45.524;10.938;2022-10-26T03:05:57;15.30;99.90
41256;DHT22;26989;45.524;10.938;2022-10-26T03:08:24;15.30;99.90
41256;DHT22;26989;45.524;10.938;2022-10-26T03:10:51;15.20;99.90
41256;DHT22;26989;45.524;10.938;2022-10-26T03:13:18;15.10;99.90
41256;DHT22;26989;45.524;10.938;2022-10-26T03:15:44;15.00;99.90
41256;DHT22;26989;45.524;10.938;2022-10-26T03:18:11;15.00;99.90
41256;DHT22;26989;45.524;10.938;2022-10-26T03:20:38;15.00;99.90
41256;DHT22;26989;45.524;10.938;2022-10-26T03:23:05;15.00;99.90
41256;DHT22;26989;45.524;10.938;2022-10-26T03:25:31;15.00;99.90
41256;DHT22;26989;45.524;10.938;2022-10-26T03:28:01;15.00;99.90
41256;DHT22;26989;45.524;10.938;2022-10-26T03:30:28;15.00;99.90
41256;DHT22;26989;45.524;10.938;2022-10-26T03:32:56;14.90;99.90
41256;DHT22;26989;45.524;10.938;2022-10-26T03:35:23;14.90;99.90
41256;DHT22;26989;45.524;10.938;2022-10-26T03:37:50;14.90;99.90
41256;DHT22;26989;45.524;10.938;2022-10-26T03:40:17;14.90;99.90
41256;DHT22;26989;45.524;10.938;2022-10-26T03:42:44;14.90;99.90
41256;DHT22;26989;45.524;10.938;2022-10-26T03:45:11;15.00;99.90
41256;DHT22;26989;45.524;10.938;2022-10-26T03:47:45;15.10;99.90
41256;DHT22;26989;45.524;10.938;2022-10-26T03:50:14;15.10;99.90
41256;DHT22;26989;45.524;10.938;2022-10-26T03:52:41;15.20;99.90
41256;DHT22;26989;45.524;10.938;2022-10-26T03:55:08;15.40;99.90
41256;DHT22;26989;45.524;10.938;2022-10-26T03:57:43;15.40;99.90
41256;DHT22;26989;45.524;10.938;2022-10-26T04:00:11;15.50;99.90
41256;DHT22;26989;45.524;10.938;2022-10-26T04:02:44;15.50;99.90
41256;DHT22;26989;45.524;10.938;2022-10-26T04:05:15;15.50;99.90
41256;DHT22;26989;45.524;10.938;2022-10-26T04:07:42;15.60;99.90
41256;DHT22;26989;45.524;10.938;2022-10-26T04:10:09;15.50;99.90
41256;DHT22;26989;45.524;10.938;2022-10-26T04:12:37;15.60;99.90
41256;DHT22;26989;45.524;10.938;2022-10-26T04:15:04;15.60;99.90
41256;DHT22;26989;45.524;10.938;2022-10-26T04:17:32;15.70;99.90
41256;DHT22;26989;45.524;10.938;2022-10-26T04:19:59;15.70;99.90
41256;DHT22;26989;45.524;10.938;2022-10-26T04:22:26;15.70;99.90
41256;DHT22;26989;45.524;10.938;2022-10-26T04:24:53;15.70;99.90
41256;DHT22;26989;45.524;10.938;2022-10-26T04:27:20;15.80;99.90
41256;DHT22;26989;45.524;10.938;2022-10-26T04:29:47;15.80;99.90
41256;DHT22;26989;45.524;10.938;2022-10-26T04:32:14;15.80;99.90
41256;DHT22;26989;45.524;10.938;2022-10-26T04:34:41;15.90;99.90
41256;DHT22;26989;45.524;10.938;2022-10-26T04:37:08;15.80;99.90
41256;DHT22;26989;45.524;10.938;2022-10-26T04:39:34;15.90;99.90
41256;DHT22;26989;45.524;10.938;2022-10-26T04:42:01;15.90;99.90
41256;DHT22;26989;45.524;10.938;2022-10-26T04:44:28;15.90;99.90
41256;DHT22;26989;45.524;10.938;2022-10-26T04:46:55;15.90;99.90
41256;DHT22;26989;45.524;10.938;2022-10-26T04:49:22;15.90;99.90
41256;DHT22;26989;45.524;10.938;2022-10-26T04:51:49;15.90;99.90
41256;DHT22;26989;45.524;10.938;2022-10-26T04:54:15;15.90;99.90
41256;DHT22;26989;45.524;10.938;2022-10-26T04:56:42;16.00;99.90
41256;DHT22;26989;45.524;10.938;2022-10-26T04:59:09;15.90;99.90
41256;DHT22;26989;45.524;10.938;2022-10-26T05:01:36;16.00;99.90
41256;DHT22;26989;45.524;10.938;2022-10-26T05:04:03;16.00;99.90
41256;DHT22;26989;45.524;10.938;2022-10-26T05:06:29;16.00;99.90
41256;DHT22;26989;45.524;10.938;2022-10-26T05:08:56;16.00;99.90
41256;DHT22;26989;45.524;10.938;2022-10-26T05:11:23;15.90;99.90
41256;DHT22;26989;45.524;10.938;2022-10-26T05:13:49;16.00;99.90
41256;DHT22;26989;45.524;10.938;2022-10-26T05:16:16;16.00;99.90
41256;DHT22;26989;45.524;10.938;2022-10-26T05:18:43;16.00;99.90
41256;DHT22;26989;45.524;10.938;2022-10-26T05:21:13;16.00;99.90
41256;DHT22;26989;45.524;10.938;2022-10-26T05:23:53;15.90;99.90
41256;DHT22;26989;45.524;10.938;2022-10-26T05:26:21;15.90;99.90
41256;DHT22;26989;45.524;10.938;2022-10-26T05:28:50;15.80;99.90
41256;DHT22;26989;45.524;10.938;2022-10-26T05:31:17;15.80;99.90
41256;DHT22;26989;45.524;10.938;2022-10-26T05:33:46;15.70;99.90
41256;DHT22;26989;45.524;10.938;2022-10-26T05:36:13;15.70;99.90
41256;DHT22;26989;45.524;10.938;2022-10-26T05:38:40;15.60;99.90
41256;DHT22;26989;45.524;10.938;2022-10-26T05:41:07;15.70;99.90
41256;DHT22;26989;45.524;10.938;2022-10-26T05:43:34;15.70;99.90
41256;DHT22;26989;45.524;10.938;2022-10-26T05:46:00;15.60;99.90
41256;DHT22;26989;45.524;10.938;2022-10-26T05:48:27;15.60;99.90
41256;DHT22;26989;45.524;10.938;2022-10-26T05:50:58;15.50;99.90
41256;DHT22;26989;45.524;10.938;2022-10-26T05:53:25;15.40;99.90
41256;DHT22;26989;45.524;10.938;2022-10-26T05:55:53;15.30;99.90
41256;DHT22;26989;45.524;10.938;2022-10-26T05:58:20;15.30;99.90
41256;DHT22;26989;45.524;10.938;2022-10-26T06:06:25;15.30;99.90
41256;DHT22;26989;45.524;10.938;2022-10-26T06:08:53;15.20;99.90
41256;DHT22;26989;45.524;10.938;2022-10-26T06:11:20;15.20;99.90
41256;DHT22;26989;45.524;10.938;2022-10-26T06:13:47;15.20;99.90
41256;DHT22;26989;45.524;10.938;2022-10-26T06:27:46;15.70;99.90
41256;DHT22;26989;45.524;10.938;2022-10-26T06:30:17;15.80;99.90
41256;DHT22;26989;45.524;10.938;2022-10-26T06:32:46;16.00;99.90
41256;DHT22;26989;45.524;10.938;2022-10-26T06:35:29;16.00;99.90
41256;DHT22;26989;45.524;10.938;2022-10-26T06:38:02;16.10;99.90
41256;DHT22;26989;45.524;10.938;2022-10-26T06:40:31;16.00;99.90
41256;DHT22;26989;45.524;10.938;2022-10-26T06:43:00;16.10;99.90
41256;DHT22;26989;45.524;10.938;2022-10-26T06:45:28;16.10;99.90
41256;DHT22;26989;45.524;10.938;2022-10-26T06:48:13;16.10;99.90
41256;DHT22;26989;45.524;10.938;2022-10-26T06:51:00;16.10;99.90
41256;DHT22;26989;45.524;10.938;2022-10-26T06:53:34;16.10;99.90
41256;DHT22;26989;45.524;10.938;2022-10-26T06:56:03;16.10;99.90
41256;DHT22;26989;45.524;10.938;2022-10-26T06:58:33;16.20;99.90
41256;DHT22;26989;45.524;10.938;2022-10-26T07:01:01;16.20;99.90
41256;DHT22;26989;45.524;10.938;2022-10-26T07:03:28;16.30;99.90
41256;DHT22;26989;45.524;10.938;2022-10-26T07:05:55;16.30;99.90
41256;DHT22;26989;45.524;10.938;2022-10-26T07:08:21;16.30;99.90
41256;DHT22;26989;45.524;10.938;2022-10-26T07:10:48;16.30;99.90
41256;DHT22;26989;45.524;10.938;2022-10-26T07:13:15;16.40;99.90
41256;DHT22;26989;45.524;10.938;2022-10-26T07:15:42;16.50;99.90
41256;DHT22;26989;45.524;10.938;2022-10-26T07:18:09;16.60;99.90
41256;DHT22;26989;45.524;10.938;2022-10-26T07:20:38;16.60;99.90
41256;DHT22;26989;45.524;10.938;2022-10-26T07:23:05;16.70;99.90
41256;DHT22;26989;45.524;10.938;2022-10-26T07:25:33;16.90;99.90
41256;DHT22;26989;45.524;10.938;2022-10-26T07:28:00;16.90;99.90
41256;DHT22;26989;45.524;10.938;2022-10-26T07:30:28;17.00;99.90
41256;DHT22;26989;45.524;10.938;2022-10-26T07:33:07;17.20;99.90
41256;DHT22;26989;45.524;10.938;2022-10-26T07:35:35;17.30;99.90
41256;DHT22;26989;45.524;10.938;2022-10-26T07:38:02;17.40;99.90
41256;DHT22;26989;45.524;10.938;2022-10-26T07:40:29;17.50;99.90
41256;DHT22;26989;45.524;10.938;2022-10-26T07:42:58;17.50;99.90
41256;DHT22;26989;45.524;10.938;2022-10-26T07:45:26;17.60;99.90
41256;DHT22;26989;45.524;10.938;2022-10-26T07:47:53;17.70;99.90
41256;DHT22;26989;45.524;10.938;2022-10-26T07:50:20;17.90;99.90
41256;DHT22;26989;45.524;10.938;2022-10-26T07:52:46;18.00;99.90
41256;DHT22;26989;45.524;10.938;2022-10-26T07:55:14;18.10;99.90
41256;DHT22;26989;45.524;10.938;2022-10-26T07:57:41;18.10;99.90
41256;DHT22;26989;45.524;10.938;2022-10-26T08:00:08;18.10;99.90
41256;DHT22;26989;45.524;10.938;2022-10-26T08:02:36;18.20;99.90
41256;DHT22;26989;45.524;10.938;2022-10-26T08:05:03;18.20;99.90
41256;DHT22;26989;45.524;10.938;2022-10-26T08:07:30;18.30;99.90
41256;DHT22;26989;45.524;10.938;2022-10-26T08:09:57;18.40;99.90
41256;DHT22;26989;45.524;10.938;2022-10-26T08:12:24;18.40;99.90
41256;DHT22;26989;45.524;10.938;2022-10-26T08:14:50;18.50;99.90
41256;DHT22;26989;45.524;10.938;2022-10-26T08:17:17;18.50;99.90
41256;DHT22;26989;45.524;10.938;2022-10-26T08:19:46;18.50;99.90
41256;DHT22;26989;45.524;10.938;2022-10-26T08:22:13;18.50;99.90
41256;DHT22;26989;45.524;10.938;2022-10-26T08:24:45;18.50;99.90
41256;DHT22;26989;45.524;10.938;2022-10-26T08:27:13;18.60;99.90
41256;DHT22;26989;45.524;10.938;2022-10-26T08:29:41;18.60;99.90
41256;DHT22;26989;45.524;10.938;2022-10-26T08:32:08;18.50;99.90
41256;DHT22;26989;45.524;10.938;2022-10-26T08:34:34;18.60;99.90
41256;DHT22;26989;45.524;10.938;2022-10-26T08:37:01;18.60;99.90
41256;DHT22;26989;45.524;10.938;2022-10-26T08:39:28;18.60;99.90
41256;DHT22;26989;45.524;10.938;2022-10-26T08:42:12;18.50;99.90
41256;DHT22;26989;45.524;10.938;2022-10-26T08:44:47;18.50;99.90
41256;DHT22;26989;45.524;10.938;2022-10-26T08:47:34;18.50;99.90
41256;DHT22;26989;45.524;10.938;2022-10-26T08:50:09;18.60;99.90
41256;DHT22;26989;45.524;10.938;2022-10-26T08:52:46;18.60;99.90
41256;DHT22;26989;45.524;10.938;2022-10-26T08:55:18;18.50;99.90
41256;DHT22;26989;45.524;10.938;2022-10-26T08:57:46;18.50;99.90
41256;DHT22;26989;45.524;10.938;2022-10-26T09:00:20;18.60;99.90
41256;DHT22;26989;45.524;10.938;2022-10-26T09:02:51;18.70;99.90
41256;DHT22;26989;45.524;10.938;2022-10-26T09:05:33;18.70;99.90
41256;DHT22;26989;45.524;10.938;2022-10-26T09:08:11;18.60;99.90
41256;DHT22;26989;45.524;10.938;2022-10-26T09:24:38;19.00;99.90
41256;DHT22;26989;45.524;10.938;2022-10-26T09:27:34;19.00;99.90
41256;DHT22;26989;45.524;10.938;2022-10-26T09:30:13;19.00;99.90
41256;DHT22;26989;45.524;10.938;2022-10-26T09:32:49;19.00;99.90
41256;DHT22;26989;45.524;10.938;2022-10-26T09:35:25;19.00;99.90
41256;DHT22;26989;45.524;10.938;2022-10-26T09:38:08;19.10;99.90
41256;DHT22;26989;45.524;10.938;2022-10-26T09:43:51;19.20;99.90
41256;DHT22;26989;45.524;10.938;2022-10-26T09:46:25;19.20;99.90
41256;DHT22;26989;45.524;10.938;2022-10-26T09:48:57;19.20;99.90
41256;DHT22;26989;45.524;10.938;2022-10-26T09:51:25;19.30;99.90
41256;DHT22;26989;45.524;10.938;2022-10-26T09:53:56;19.20;99.90
41256;DHT22;26989;45.524;10.938;2022-10-26T09:56:24;19.40;99.90
41256;DHT22;26989;45.524;10.938;2022-10-26T09:58:54;19.50;99.90
41256;DHT22;26989;45.524;10.938;2022-10-26T10:01:31;19.50;99.90
41256;DHT22;26989;45.524;10.938;2022-10-26T10:04:17;19.50;99.90
41256;DHT22;26989;45.524;10.938;2022-10-26T10:09:31;19.60;99.90
41256;DHT22;26989;45.524;10.938;2022-10-26T10:12:00;19.50;99.90
41256;DHT22;26989;45.524;10.938;2022-10-26T10:14:38;19.40;99.90
41256;DHT22;26989;45.524;10.938;2022-10-26T10:17:20;19.60;99.90
41256;DHT22;26989;45.524;10.938;2022-10-26T10:19:47;19.70;99.90
41256;DHT22;26989;45.524;10.938;2022-10-26T10:22:23;19.60;99.90
41256;DHT22;26989;45.524;10.938;2022-10-26T10:24:59;19.80;99.90
41256;DHT22;26989;45.524;10.938;2022-10-26T10:27:27;19.80;99.90
41256;DHT22;26989;45.524;10.938;2022-10-26T10:29:56;19.80;99.90
41256;DHT22;26989;45.524;10.938;2022-10-26T10:32:30;20.00;99.90
41256;DHT22;26989;45.524;10.938;2022-10-26T10:35:27;20.10;99.90
41256;DHT22;26989;45.524;10.938;2022-10-26T10:37:55;20.10;99.90
41256;DHT22;26989;45.524;10.938;2022-10-26T10:40:26;20.10;99.90
41256;DHT22;26989;45.524;10.938;2022-10-26T10:43:11;20.00;99.90
41256;DHT22;26989;45.524;10.938;2022-10-26T10:45:39;20.00;99.90
41256;DHT22;26989;45.524;10.938;2022-10-26T10:48:15;20.00;99.90
41256;DHT22;26989;45.524;10.938;2022-10-26T10:56:22;20.30;99.90
41256;DHT22;26989;45.524;10.938;2022-10-26T10:59:19;20.30;99.90
41256;DHT22;26989;45.524;10.938;2022-10-26T11:07:26;20.10;99.90
41256;DHT22;26989;45.524;10.938;2022-10-26T11:09:54;20.20;99.90
41256;DHT22;26989;45.524;10.938;2022-10-26T11:12:33;20.10;99.90
41256;DHT22;26989;45.524;10.938;2022-10-26T11:15:09;20.20;99.90
41256;DHT22;26989;45.524;10.938;2022-10-26T11:18:01;20.20;99.90
41256;DHT22;26989;45.524;10.938;2022-10-26T11:20:41;20.30;99.90
41256;DHT22;26989;45.524;10.938;2022-10-26T11:23:24;20.30;99.90
41256;DHT22;26989;45.524;10.938;2022-10-26T11:26:12;20.30;99.90
41256;DHT22;26989;45.524;10.938;2022-10-26T11:28:54;20.30;99.90
41256;DHT22;26989;45.524;10.938;2022-10-26T11:31:37;20.30;99.90
41256;DHT22;26989;45.524;10.938;2022-10-26T11:36:49;20.50;99.90
41256;DHT22;26989;45.524;10.938;2022-10-26T11:39:44;20.50;99.90
41256;DHT22;26989;45.524;10.938;2022-10-26T11:42:39;20.50;99.90
41256;DHT22;26989;45.524;10.938;2022-10-26T11:45:24;20.50;99.90
41256;DHT22;26989;45.524;10.938;2022-10-26T11:50:47;20.60;99.90
41256;DHT22;26989;45.524;10.938;2022-10-26T11:53:17;20.70;99.90
41256;DHT22;26989;45.524;10.938;2022-10-26T11:55:51;20.70;99.90
41256;DHT22;26989;45.524;10.938;2022-10-26T11:58:23;20.70;99.90
41256;DHT22;26989;45.524;10.938;2022-10-26T12:00:55;20.60;99.90
41256;DHT22;26989;45.524;10.938;2022-10-26T12:03:31;20.70;99.90
41256;DHT22;26989;45.524;10.938;2022-10-26T12:06:00;20.60;99.90
41256;DHT22;26989;45.524;10.938;2022-10-26T12:08:40;20.60;99.90
41256;DHT22;26989;45.524;10.938;2022-10-26T12:11:30;20.60;99.90
41256;DHT22;26989;45.524;10.938;2022-10-26T12:14:23;20.60;99.90
41256;DHT22;26989;45.524;10.938;2022-10-26T12:19:38;20.70;99.90
41256;DHT22;26989;45.524;10.938;2022-10-26T12:22:13;20.80;99.90
41256;DHT22;26989;45.524;10.938;2022-10-26T12:24:44;20.80;99.90
41256;DHT22;26989;45.524;10.938;2022-10-26T12:38:00;20.80;99.90
41256;DHT22;26989;45.524;10.938;2022-10-26T12:45:46;20.90;99.90
41256;DHT22;26989;45.524;10.938;2022-10-26T12:48:42;21.00;99.90
41256;DHT22;26989;45.524;10.938;2022-10-26T12:54:02;21.00;99.90
41256;DHT22;26989;45.524;10.938;2022-10-26T13:08:05;21.10;99.90
41256;DHT22;26989;45.524;10.938;2022-10-26T13:10:34;21.20;99.90
41256;DHT22;26989;45.524;10.938;2022-10-26T13:13:03;21.20;99.90
41256;DHT22;26989;45.524;10.938;2022-10-26T13:15:52;21.30;99.90
41256;DHT22;26989;45.524;10.938;2022-10-26T13:18:20;21.30;99.90
41256;DHT22;26989;45.524;10.938;2022-10-26T13:21:07;21.40;99.90
41256;DHT22;26989;45.524;10.938;2022-10-26T13:23:41;21.30;99.90
41256;DHT22;26989;45.524;10.938;2022-10-26T13:26:21;21.30;99.90
41256;DHT22;26989;45.524;10.938;2022-10-26T13:28:56;21.30;99.90
41256;DHT22;26989;45.524;10.938;2022-10-26T13:34:03;21.50;99.90
41256;DHT22;26989;45.524;10.938;2022-10-26T13:37:20;21.40;99.90
41256;DHT22;26989;45.524;10.938;2022-10-26T13:39:48;21.40;99.90
41256;DHT22;26989;45.524;10.938;2022-10-26T13:42:19;21.60;99.90
41256;DHT22;26989;45.524;10.938;2022-10-26T13:45:08;21.60;99.90
41256;DHT22;26989;45.524;10.938;2022-10-26T13:50:28;21.60;99.90
41256;DHT22;26989;45.524;10.938;2022-10-26T13:53:06;21.50;99.90
41256;DHT22;26989;45.524;10.938;2022-10-26T13:55:52;21.50;99.90
41256;DHT22;26989;45.524;10.938;2022-10-26T13:58:27;21.50;99.90
41256;DHT22;26989;45.524;10.938;2022-10-26T14:03:36;21.60;99.90
41256;DHT22;26989;45.524;10.938;2022-10-26T14:08:52;21.50;99.90
41256;DHT22;26989;45.524;10.938;2022-10-26T14:11:23;21.50;99.90
41256;DHT22;26989;45.524;10.938;2022-10-26T14:13:52;21.60;99.90
41256;DHT22;26989;45.524;10.938;2022-10-26T14:16:28;21.60;99.90
41256;DHT22;26989;45.524;10.938;2022-10-26T14:18:55;21.50;99.90
41256;DHT22;26989;45.524;10.938;2022-10-26T14:21:22;21.50;99.90
41256;DHT22;26989;45.524;10.938;2022-10-26T14:23:59;21.60;99.90
41256;DHT22;26989;45.524;10.938;2022-10-26T14:26:37;21.60;99.90
41256;DHT22;26989;45.524;10.938;2022-10-26T14:29:15;21.60;99.90
41256;DHT22;26989;45.524;10.938;2022-10-26T14:31:43;21.50;99.90
41256;DHT22;26989;45.524;10.938;2022-10-26T14:34:11;21.50;99.90
41256;DHT22;26989;45.524;10.938;2022-10-26T14:39:34;21.60;99.90
41256;DHT22;26989;45.524;10.938;2022-10-26T14:42:17;21.60;99.90
41256;DHT22;26989;45.524;10.938;2022-10-26T14:44:48;21.50;99.90
41256;DHT22;26989;45.524;10.938;2022-10-26T14:47:24;21.50;99.90
41256;DHT22;26989;45.524;10.938;2022-10-26T14:49:52;21.50;99.90
41256;DHT22;26989;45.524;10.938;2022-10-26T14:52:26;21.40;99.90
41256;DHT22;26989;45.524;10.938;2022-10-26T14:55:11;21.40;99.90
41256;DHT22;26989;45.524;10.938;2022-10-26T14:57:41;21.40;99.90
41256;DHT22;26989;45.524;10.938;2022-10-26T15:00:22;21.40;99.90
41256;DHT22;26989;45.524;10.938;2022-10-26T15:02:51;21.40;99.90
41256;DHT22;26989;45.524;10.938;2022-10-26T15:05:30;21.40;99.90
41256;DHT22;26989;45.524;10.938;2022-10-26T15:08:01;21.30;99.90
41256;DHT22;26989;45.524;10.938;2022-10-26T15:13:26;21.20;99.90
41256;DHT22;26989;45.524;10.938;2022-10-26T15:15:57;21.00;99.90
41256;DHT22;26989;45.524;10.938;2022-10-26T15:18:26;20.90;99.90
41256;DHT22;26989;45.524;10.938;2022-10-26T15:20:54;20.80;99.90
41256;DHT22;26989;45.524;10.938;2022-10-26T15:23:23;20.70;99.90
41256;DHT22;26989;45.524;10.938;2022-10-26T15:25:54;20.70;99.90
41256;DHT22;26989;45.524;10.938;2022-10-26T15:28:38;20.70;99.90
41256;DHT22;26989;45.524;10.938;2022-10-26T15:33:46;20.50;99.90
41256;DHT22;26989;45.524;10.938;2022-10-26T15:36:30;20.40;99.90
41256;DHT22;26989;45.524;10.938;2022-10-26T15:38:58;20.40;99.90
41256;DHT22;26989;45.524;10.938;2022-10-26T15:41:29;20.30;99.90
41256;DHT22;26989;45.524;10.938;2022-10-26T15:43:58;20.10;99.90
41256;DHT22;26989;45.524;10.938;2022-10-26T15:46:32;20.00;99.90
41256;DHT22;26989;45.524;10.938;2022-10-26T15:49:02;19.90;99.90
41256;DHT22;26989;45.524;10.938;2022-10-26T15:51:29;20.00;99.90
41256;DHT22;26989;45.524;10.938;2022-10-26T15:53:57;20.00;99.90
41256;DHT22;26989;45.524;10.938;2022-10-26T15:56:25;19.80;99.90
41256;DHT22;26989;45.524;10.938;2022-10-26T15:58:53;19.40;99.90
41256;DHT22;26989;45.524;10.938;2022-10-26T16:01:25;19.30;99.90
41256;DHT22;26989;45.524;10.938;2022-10-26T16:03:52;19.20;99.90
41256;DHT22;26989;45.524;10.938;2022-10-26T16:06:30;19.10;99.90
41256;DHT22;26989;45.524;10.938;2022-10-26T16:09:00;19.10;99.90
41256;DHT22;26989;45.524;10.938;2022-10-26T16:11:28;19.00;99.90
41256;DHT22;26989;45.524;10.938;2022-10-26T16:13:56;19.00;99.90
41256;DHT22;26989;45.524;10.938;2022-10-26T16:16:28;18.70;99.90
41256;DHT22;26989;45.524;10.938;2022-10-26T16:18:55;18.50;99.90
41256;DHT22;26989;45.524;10.938;2022-10-26T16:21:42;18.40;99.90
41256;DHT22;26989;45.524;10.938;2022-10-26T16:24:10;18.30;99.90
41256;DHT22;26989;45.524;10.938;2022-10-26T16:26:37;18.20;99.90
41256;DHT22;26989;45.524;10.938;2022-10-26T16:29:04;18.20;99.90
41256;DHT22;26989;45.524;10.938;2022-10-26T16:31:30;18.10;99.90
41256;DHT22;26989;45.524;10.938;2022-10-26T16:33:57;18.20;99.90
41256;DHT22;26989;45.524;10.938;2022-10-26T16:36:29;18.10;99.90
41256;DHT22;26989;45.524;10.938;2022-10-26T16:38:59;18.00;99.90
41256;DHT22;26989;45.524;10.938;2022-10-26T16:41:27;17.90;99.90
41256;DHT22;26989;45.524;10.938;2022-10-26T16:43:55;17.80;99.90
41256;DHT22;26989;45.524;10.938;2022-10-26T16:46:21;17.90;99.90
41256;DHT22;26989;45.524;10.938;2022-10-26T16:48:49;17.90;99.90
41256;DHT22;26989;45.524;10.938;2022-10-26T16:51:21;17.90;99.90
41256;DHT22;26989;45.524;10.938;2022-10-26T16:53:50;17.90;99.90
41256;DHT22;26989;45.524;10.938;2022-10-26T16:56:20;17.90;99.90
41256;DHT22;26989;45.524;10.938;2022-10-26T16:58:48;17.80;99.90
41256;DHT22;26989;45.524;10.938;2022-10-26T17:01:16;17.90;99.90
41256;DHT22;26989;45.524;10.938;2022-10-26T17:03:47;17.80;99.90
41256;DHT22;26989;45.524;10.938;2022-10-26T17:06:14;17.70;99.90
41256;DHT22;26989;45.524;10.938;2022-10-26T17:08:41;17.60;99.90
41256;DHT22;26989;45.524;10.938;2022-10-26T17:11:11;17.60;99.90
41256;DHT22;26989;45.524;10.938;2022-10-26T17:13:39;17.50;99.90
41256;DHT22;26989;45.524;10.938;2022-10-26T17:16:12;17.40;99.90
41256;DHT22;26989;45.524;10.938;2022-10-26T17:18:40;17.40;99.90
41256;DHT22;26989;45.524;10.938;2022-10-26T17:21:08;17.30;99.90
41256;DHT22;26989;45.524;10.938;2022-10-26T17:23:35;17.30;99.90
41256;DHT22;26989;45.524;10.938;2022-10-26T17:26:03;17.40;99.90
41256;DHT22;26989;45.524;10.938;2022-10-26T17:28:31;17.30;99.90
41256;DHT22;26989;45.524;10.938;2022-10-26T17:31:06;17.30;99.90
41256;DHT22;26989;45.524;10.938;2022-10-26T17:33:35;17.20;99.90
41256;DHT22;26989;45.524;10.938;2022-10-26T17:36:04;17.10;99.90
41256;DHT22;26989;45.524;10.938;2022-10-26T17:38:36;17.10;99.90
41256;DHT22;26989;45.524;10.938;2022-10-26T17:41:06;17.00;99.90
41256;DHT22;26989;45.524;10.938;2022-10-26T17:43:35;17.00;99.90
41256;DHT22;26989;45.524;10.938;2022-10-26T17:46:04;17.00;99.90
41256;DHT22;26989;45.524;10.938;2022-10-26T17:48:32;17.10;99.90
41256;DHT22;26989;45.524;10.938;2022-10-26T17:51:00;17.00;99.90
41256;DHT22;26989;45.524;10.938;2022-10-26T17:53:28;17.00;99.90